Time,TemperatureF,DewpointF,PressureIn,WindDirection,WindDirectionDegrees,WindSpeedMPH,WindSpeedGustMPH,Humidity,HourlyPrecipIn,Conditions,Clouds,dailyrainin,SoftwareType,DateUTC
2013-08-21 00:14:00,76.0,74.0,30.07,NNE,30,0.0,0.0,92,0.00,,,0.05,,2013-08-21 04:14:00,
2013-08-21 00:24:00,76.0,74.0,30.07,NE,47,0.0,0.0,92,0.00,,,0.05,,2013-08-21 04:24:00,
2013-08-21 00:44:00,76.0,74.0,30.07,ENE,60,0.0,0.0,92,0.00,,,0.05,,2013-08-21 04:44:00,
2013-08-21 00:54:00,76.0,74.0,30.07,NE,53,0.0,0.0,92,0.00,,,0.05,,2013-08-21 04:54:00,
2013-08-21 01:13:00,76.0,74.0,30.08,NE,55,0.0,0.0,92,0.00,,,0.05,,2013-08-21 05:13:00,
2013-08-21 01:23:00,75.0,73.0,30.08,NE,53,0.0,0.0,92,0.00,,,0.05,,2013-08-21 05:23:00,
2013-08-21 01:52:00,75.0,73.0,30.08,NE,46,0.0,0.0,92,0.00,,,0.05,,2013-08-21 05:52:00,
2013-08-21 02:12:00,75.0,73.0,30.07,NE,46,0.0,0.0,92,0.00,,,0.05,,2013-08-21 06:12:00,
2013-08-21 02:22:00,75.0,73.0,30.07,NE,46,0.0,0.0,92,0.00,,,0.05,,2013-08-21 06:22:00,
2013-08-21 02:42:00,75.0,73.0,30.07,NE,46,0.0,0.0,92,0.00,,,0.05,,2013-08-21 06:42:00,
2013-08-21 02:52:00,75.0,73.0,30.06,NE,46,0.0,0.0,92,0.00,,,0.05,,2013-08-21 06:52:00,
2013-08-21 03:11:00,75.0,73.0,30.06,NE,46,0.0,0.0,92,0.00,,,0.05,,2013-08-21 07:11:00,
2013-08-21 03:22:00,74.0,72.0,30.06,NE,46,0.0,0.0,92,0.00,,,0.05,,2013-08-21 07:22:00,
2013-08-21 03:42:00,74.0,72.0,30.05,NE,46,0.0,0.0,93,0.00,,,0.05,,2013-08-21 07:42:00,
2013-08-21 03:53:00,74.0,72.0,30.04,NE,50,0.0,0.0,93,0.00,,,0.05,,2013-08-21 07:53:00,
2013-08-21 04:12:00,75.0,73.0,30.04,ENE,73,0.0,0.0,93,0.00,,,0.05,,2013-08-21 08:12:00,
2013-08-21 04:22:00,75.0,73.0,30.03,East,88,0.0,0.0,94,0.00,,,0.05,,2013-08-21 08:22:00,
2013-08-21 04:43:00,75.0,73.0,30.03,East,84,0.0,0.0,94,0.00,,,0.05,,2013-08-21 08:43:00,
2013-08-21 04:53:00,76.0,74.0,30.03,ENE,65,0.0,0.0,94,0.00,,,0.05,,2013-08-21 08:53:00,
2013-08-21 05:11:00,76.0,74.0,30.03,ENE,67,0.0,0.0,95,0.00,,,0.05,,2013-08-21 09:11:00,
2013-08-21 05:22:00,76.0,74.0,30.03,ENE,78,0.0,0.0,95,0.00,,,0.05,,2013-08-21 09:22:00,
2013-08-21 05:43:00,76.0,74.0,30.03,East,82,0.0,0.0,95,0.00,,,0.05,,2013-08-21 09:43:00,
2013-08-21 05:54:00,76.0,74.0,30.03,ENE,57,0.0,0.0,95,0.00,,,0.05,,2013-08-21 09:54:00,
2013-08-21 06:13:00,76.0,74.0,30.03,East,89,0.0,0.0,95,0.00,,,0.05,,2013-08-21 10:13:00,
2013-08-21 06:23:00,76.0,74.0,30.03,ENE,65,0.0,0.0,95,0.00,,,0.05,,2013-08-21 10:23:00,
2013-08-21 06:43:00,76.0,75.0,30.04,ENE,74,0.0,0.0,96,0.00,,,0.05,,2013-08-21 10:43:00,
2013-08-21 06:53:00,76.0,75.0,30.04,East,86,0.0,0.0,96,0.00,,,0.05,,2013-08-21 10:53:00,
2013-08-21 07:12:00,76.0,75.0,30.05,East,91,0.0,0.0,96,0.00,,,0.05,,2013-08-21 11:12:00,
2013-08-21 07:22:00,76.0,75.0,30.05,East,87,0.0,0.0,96,0.00,,,0.04,,2013-08-21 11:22:00,
2013-08-21 07:42:00,76.0,75.0,30.05,East,101,0.0,0.0,96,0.00,,,0.04,,2013-08-21 11:42:00,
2013-08-21 07:53:00,76.0,75.0,30.06,East,91,0.0,0.0,96,0.00,,,0.04,,2013-08-21 11:53:00,
2013-08-21 08:12:00,76.0,75.0,30.06,NE,44,0.0,0.0,96,0.00,,,0.04,,2013-08-21 12:12:00,
2013-08-21 08:22:00,77.0,76.0,30.06,East,98,0.0,0.0,96,0.00,,,0.04,,2013-08-21 12:22:00,
2013-08-21 08:42:00,77.0,76.0,30.06,East,80,3.0,7.0,96,0.00,,,0.04,,2013-08-21 12:42:00,
2013-08-21 08:52:00,78.0,76.0,30.06,ESE,103,5.0,7.0,95,0.00,,,0.04,,2013-08-21 12:52:00,
2013-08-21 09:12:00,79.0,77.0,30.07,East,98,4.0,8.0,93,0.00,,,0.04,,2013-08-21 13:12:00,
2013-08-21 09:21:00,80.0,77.0,30.07,ESE,117,5.0,7.0,91,0.00,,,0.04,,2013-08-21 13:21:00,
2013-08-21 09:42:00,81.0,76.0,30.08,East,101,3.0,5.0,85,0.00,,,0.04,,2013-08-21 13:42:00,
2013-08-21 09:52:00,82.0,75.0,30.08,East,93,4.0,5.0,80,0.00,,,0.04,,2013-08-21 13:52:00,
2013-08-21 10:12:00,83.0,75.0,30.09,ENE,73,6.0,8.0,78,0.00,,,0.04,,2013-08-21 14:12:00,
2013-08-21 10:21:00,85.0,77.0,30.09,East,99,7.0,9.0,76,0.00,,,0.04,,2013-08-21 14:21:00,
2013-08-21 10:42:00,85.0,76.0,30.08,ENE,68,8.0,11.0,74,0.00,,,0.04,,2013-08-21 14:42:00,
2013-08-21 10:52:00,86.0,76.0,30.08,East,94,5.0,9.0,73,0.00,,,0.04,,2013-08-21 14:52:00,
2013-08-21 11:11:00,87.0,76.0,30.08,East,89,8.0,9.0,70,0.00,,,0.04,,2013-08-21 15:11:00,
2013-08-21 11:22:00,86.0,75.0,30.08,East,80,6.0,10.0,70,0.00,,,0.04,,2013-08-21 15:22:00,
2013-08-21 11:43:00,87.0,76.0,30.09,ESE,105,3.0,7.0,69,0.00,,,0.04,,2013-08-21 15:43:00,
2013-08-21 11:55:00,88.0,76.0,30.09,East,92,7.0,8.0,67,0.00,,,0.04,,2013-08-21 15:55:00,
2013-08-21 12:13:00,88.0,75.0,30.08,SE,143,6.0,8.0,65,0.00,,,0.04,,2013-08-21 16:13:00,
2013-08-21 12:24:00,88.0,75.0,30.08,East,99,8.0,10.0,65,0.00,,,0.04,,2013-08-21 16:24:00,
2013-08-21 12:43:00,89.0,75.0,30.07,NE,52,6.0,7.0,64,0.00,,,0.04,,2013-08-21 16:43:00,
2013-08-21 12:53:00,89.0,74.0,30.07,East,82,3.0,5.0,61,0.00,,,0.04,,2013-08-21 16:53:00,
2013-08-21 13:13:00,90.0,74.0,30.06,ENE,60,7.0,10.0,59,0.00,,,0.04,,2013-08-21 17:13:00,
2013-08-21 13:23:00,90.0,75.0,30.06,East,96,6.0,9.0,61,0.00,,,0.04,,2013-08-21 17:23:00,
2013-08-21 13:43:00,91.0,75.0,30.06,East,90,6.0,8.0,60,0.00,,,0.04,,2013-08-21 17:43:00,
2013-08-21 13:53:00,91.0,75.0,30.05,East,91,6.0,8.0,59,0.00,,,0.04,,2013-08-21 17:53:00,
2013-08-21 14:12:00,91.0,73.0,30.05,East,88,4.0,5.0,56,0.00,,,0.04,,2013-08-21 18:12:00,
2013-08-21 14:22:00,91.0,75.0,30.04,East,80,7.0,9.0,59,0.00,,,0.04,,2013-08-21 18:22:00,
2013-08-21 14:42:00,91.0,74.0,30.03,ESE,109,8.0,9.0,57,0.00,,,0.04,,2013-08-21 18:42:00,
2013-08-21 14:52:00,91.0,73.0,30.02,ENE,73,5.0,8.0,56,0.00,,,0.04,,2013-08-21 18:52:00,
2013-08-21 15:12:00,92.0,73.0,30.02,East,99,8.0,10.0,54,0.00,,,0.04,,2013-08-21 19:12:00,
2013-08-21 15:22:00,93.0,72.0,30.01,NE,53,3.0,5.0,51,0.00,,,0.04,,2013-08-21 19:22:00,
2013-08-21 15:52:00,93.0,71.0,30.00,NE,55,4.0,7.0,49,0.00,,,0.01,,2013-08-21 19:52:00,
2013-08-21 16:11:00,92.0,73.0,29.99,ENE,71,6.0,9.0,54,0.00,,,0.01,,2013-08-21 20:11:00,
2013-08-21 16:22:00,92.0,73.0,29.98,East,92,4.0,6.0,55,0.00,,,0.01,,2013-08-21 20:22:00,
2013-08-21 17:55:00,77.0,74.0,30.01,East,101,0.0,0.0,89,0.00,,,0.33,,2013-08-21 21:55:00,
2013-08-21 18:14:00,77.0,74.0,30.01,East,93,5.0,8.0,90,0.00,,,0.33,,2013-08-21 22:14:00,
2013-08-21 18:24:00,77.0,74.0,30.04,NE,46,3.0,6.0,91,0.00,,,0.33,,2013-08-21 22:24:00,
2013-08-21 18:53:00,77.0,74.0,30.04,NE,35,0.0,0.0,92,0.00,,,0.33,,2013-08-21 22:53:00,
2013-08-21 19:13:00,77.0,74.0,30.03,NE,45,2.0,5.0,92,0.00,,,0.33,,2013-08-21 23:13:00,
2013-08-21 19:22:00,77.0,74.0,30.02,NNE,30,1.0,4.0,92,0.00,,,0.33,,2013-08-21 23:22:00,
2013-08-21 19:53:00,77.0,75.0,30.03,NE,46,0.0,0.0,93,0.00,,,0.33,,2013-08-21 23:53:00,
2013-08-21 20:12:00,77.0,75.0,30.03,ENE,63,0.0,0.0,93,0.00,,,0.33,,2013-08-22 00:12:00,
2013-08-21 20:22:00,77.0,75.0,30.04,ENE,63,0.0,0.0,93,0.00,,,0.33,,2013-08-22 00:22:00,
2013-08-21 20:42:00,76.0,74.0,30.05,ENE,67,0.0,0.0,93,0.00,,,0.33,,2013-08-22 00:42:00,
2013-08-21 20:52:00,76.0,74.0,30.05,ENE,70,2.0,4.0,93,0.00,,,0.33,,2013-08-22 00:52:00,
2013-08-21 21:12:00,76.0,74.0,30.05,NE,55,1.0,2.0,94,0.00,,,0.34,,2013-08-22 01:12:00,
2013-08-21 21:22:00,76.0,74.0,30.05,NE,51,0.0,0.0,94,0.00,,,0.34,,2013-08-22 01:22:00,
2013-08-21 21:42:00,76.0,74.0,30.05,ENE,63,0.0,0.0,94,0.00,,,0.34,,2013-08-22 01:42:00,
2013-08-21 21:52:00,76.0,74.0,30.06,NE,51,0.0,0.0,94,0.00,,,0.35,,2013-08-22 01:52:00,
2013-08-21 22:12:00,76.0,74.0,30.07,NE,51,0.0,0.0,94,0.00,,,0.35,,2013-08-22 02:12:00,
2013-08-21 22:22:00,76.0,74.0,30.07,NE,51,0.0,0.0,94,0.00,,,0.35,,2013-08-22 02:22:00,
2013-08-21 23:12:00,77.0,75.0,30.05,ENE,69,0.0,2.0,95,0.00,,,0.35,,2013-08-22 03:12:00,
2013-08-21 23:22:00,77.0,75.0,30.05,ENE,63,0.0,0.0,95,0.00,,,0.35,,2013-08-22 03:22:00,
2013-08-21 23:45:00,77.0,75.0,30.05,East,90,0.0,0.0,95,0.00,,,0.35,,2013-08-22 03:45:00,
2013-08-21 23:54:00,77.0,75.0,30.05,East,92,1.0,3.0,95,0.00,,,0.35,,2013-08-22 03:54:00,